Time;durP1;ratioP1;P1;durP2;ratioP2;P2;SDS_P1;SDS_P2;PMS_P1;PMS_P2;Temp;Humidity;BMP_temperature;BMP_pressure;BME280_temperature;BME280_humidity;BME280_pressure;Samples;Min_cycle;Max_cycle;Signal;HPM_P1;HPM_P2
2022/06/14 00:01:42;;;;;;;12.30;5.20;;;;;;;12.73;62.24;99039.90;104923;1288;99292;-68
2022/06/14 00:04:28;;;;;;;9.80;5.00;;;;;;;12.72;62.22;99040.70;104864;1287;99453;-69
2022/06/14 00:07:16;;;;;;;10.90;4.70;;;;;;;12.70;62.30;99041.71;104900;1287;114253;-72
2022/06/14 00:09:44;;;;;;;12.50;4.80;;;;;;;12.69;62.50;99041.80;104766;1287;99106;-69
2022/06/14 00:12:13;;;;;;;10.50;4.80;;;;;;;12.66;62.32;99044.70;104789;1287;108695;-69
2022/06/14 00:14:43;;;;;;;11.20;4.60;;;;;;;12.66;62.43;99045.56;104905;1288;99338;-68
2022/06/14 00:17:11;;;;;;;9.20;5.10;;;;;;;12.65;62.50;99048.87;104655;1290;98232;-68
2022/06/14 00:19:41;;;;;;;11.70;5.70;;;;;;;12.66;62.35;99050.40;104870;1287;113396;-71
2022/06/14 00:22:14;;;;;;;9.70;4.80;;;;;;;12.65;62.52;99051.02;104824;1290;96550;-69
2022/06/14 00:24:43;;;;;;;12.60;5.40;;;;;;;12.63;62.58;99059.67;104853;1288;107849;-68
2022/06/14 00:27:13;;;;;;;14.80;5.50;;;;;;;12.62;62.73;99065.11;104742;1290;99408;-70
2022/06/14 00:29:42;;;;;;;11.00;5.10;;;;;;;12.60;62.45;99062.63;105020;1287;96652;-69
2022/06/14 00:32:10;;;;;;;13.40;5.60;;;;;;;12.59;62.46;99067.70;104758;1290;114645;-70
2022/06/14 00:34:42;;;;;;;11.70;5.70;;;;;;;12.57;62.69;99069.64;104749;1290;99220;-68
2022/06/14 00:37:20;;;;;;;13.80;6.00;;;;;;;12.53;62.58;99073.73;104725;1290;108589;-68
2022/06/14 00:39:48;;;;;;;11.30;5.70;;;;;;;12.49;62.69;99073.67;104669;1290;99363;-69
2022/06/14 00:42:22;;;;;;;12.30;5.50;;;;;;;12.46;62.54;99080.66;105066;1288;99089;-68
2022/06/14 00:45:12;;;;;;;11.00;5.40;;;;;;;12.44;63.06;99078.87;104986;1287;113577;-68
2022/06/14 00:47:50;;;;;;;12.50;5.10;;;;;;;12.39;62.92;99086.54;105020;1287;99317;-68
2022/06/14 00:50:44;;;;;;;12.90;5.50;;;;;;;12.34;63.23;99091.35;104873;1290;107786;-69
2022/06/14 00:53:25;;;;;;;12.10;4.90;;;;;;;12.31;63.07;99092.14;104583;1290;99251;-69
2022/06/14 00:55:59;;;;;;;11.70;5.30;;;;;;;12.29;62.99;99096.59;104768;1290;97835;-69
2022/06/14 00:58:53;;;;;;;10.90;5.10;;;;;;;12.28;62.97;99105.42;104703;1290;112506;-68
2022/06/14 01:01:27;;;;;;;13.80;5.40;;;;;;;12.25;63.04;99105.05;104773;1290;99281;-71
2022/06/14 01:04:06;;;;;;;12.10;5.50;;;;;;;12.23;63.08;99114.28;104762;1290;107852;-69
2022/06/14 01:06:44;;;;;;;11.30;5.20;;;;;;;12.22;62.94;99111.87;104924;1290;99323;-70
2022/06/14 01:09:20;;;;;;;12.90;5.30;;;;;;;12.22;63.22;99115.48;104835;1290;96660;-68
2022/06/14 01:11:58;;;;;;;14.40;5.30;;;;;;;12.19;63.08;99116.40;104801;1290;112805;-69
2022/06/14 01:14:44;;;;;;;10.80;5.00;;;;;;;12.17;63.17;99121.30;104880;1290;99138;-68
2022/06/14 01:17:16;;;;;;;11.30;4.60;;;;;;;12.17;63.18;99121.18;104858;1290;107795;-69
2022/06/14 01:19:47;;;;;;;14.70;5.50;;;;;;;12.16;63.22;99119.14;104959;1290;99277;-69
2022/06/14 01:22:17;;;;;;;11.50;5.40;;;;;;;12.12;63.14;99118.90;104856;1290;99233;-70
2022/06/14 01:24:48;;;;;;;11.10;5.20;;;;;;;12.09;63.28;99120.14;104805;1290;113799;-69
2022/06/14 01:27:22;;;;;;;10.70;5.10;;;;;;;12.09;63.23;99121.45;104978;1291;99241;-69
2022/06/14 01:30:02;;;;;;;14.00;5.00;;;;;;;12.07;63.28;99122.61;104995;1290;107883;-69
2022/06/14 01:32:42;;;;;;;11.90;5.40;;;;;;;12.06;63.44;99125.38;104845;1290;99524;-69
2022/06/14 01:35:16;;;;;;;12.40;5.70;;;;;;;12.05;63.34;99124.74;104938;1290;99267;-68
2022/06/14 01:37:48;;;;;;;15.60;5.80;;;;;;;12.04;63.42;99131.77;104761;1290;112769;-68
2022/06/14 01:40:23;;;;;;;12.10;5.50;;;;;;;12.03;63.32;99130.60;104768;1290;98299;-69
2022/06/14 01:43:17;;;;;;;13.80;5.70;;;;;;;12.01;63.32;99135.05;104805;1290;107644;-70
2022/06/14 01:46:04;;;;;;;13.70;5.60;;;;;;;11.98;63.17;99139.13;104761;1288;99241;-68
2022/06/14 01:48:46;;;;;;;13.80;5.50;;;;;;;11.92;63.25;99144.89;104876;1290;99364;-69
2022/06/14 01:51:52;;;;;;;10.00;4.80;;;;;;;11.89;63.32;99147.05;104840;1290;112767;-70
2022/06/14 01:54:51;;;;;;;12.30;5.40;;;;;;;11.85;63.36;99151.48;104790;1290;99282;-70
2022/06/14 01:57:39;;;;;;;11.50;4.80;;;;;;;11.80;63.39;99147.95;104738;1290;108465;-69
2022/06/14 02:00:15;;;;;;;8.70;4.50;;;;;;;11.78;63.51;99153.61;104328;1290;97034;-70
2022/06/14 02:06:07;;;;;;;15.00;4.80;;;;;;;11.75;63.73;99153.52;104884;1290;112803;-70
2022/06/14 02:08:43;;;;;;;9.70;5.10;;;;;;;11.73;63.61;99154.55;104874;1290;99366;-69
2022/06/14 02:11:27;;;;;;;11.80;5.20;;;;;;;11.69;63.71;99156.41;104786;1290;108446;-67
2022/06/14 02:14:05;;;;;;;18.70;5.60;;;;;;;11.65;64.03;99159.59;104734;1290;99166;-69
2022/06/14 02:16:41;;;;;;;16.40;5.30;;;;;;;11.60;63.91;99163.63;104837;1290;99267;-71
2022/06/14 02:23:35;;;;;;;14.70;5.60;;;;;;;11.50;64.04;99176.52;104740;1290;99239;-69
2022/06/14 02:26:35;;;;;;;15.90;5.80;;;;;;;11.50;64.03;99176.88;104814;1289;108327;-68
2022/06/14 02:29:15;;;;;;;18.40;7.20;;;;;;;11.46;63.99;99181.35;104734;1289;99471;-70
2022/06/14 02:32:27;;;;;;;16.50;7.50;;;;;;;11.45;64.08;99185.70;104749;1288;99242;-69
2022/06/14 02:35:15;;;;;;;20.50;8.20;;;;;;;11.42;64.25;99189.27;104488;1290;112674;-69
2022/06/14 02:38:03;;;;;;;23.40;9.40;;;;;;;11.41;64.23;99187.12;104904;1288;99447;-70
2022/06/14 02:40:56;;;;;;;25.40;8.90;;;;;;;11.39;64.27;99192.92;104809;1290;107768;-70
2022/06/14 02:43:36;;;;;;;19.40;9.70;;;;;;;11.40;64.38;99193.02;104856;1288;99202;-70
2022/06/14 02:46:12;;;;;;;21.10;10.60;;;;;;;11.41;64.45;99195.59;104967;1287;99185;-69
2022/06/14 02:48:47;;;;;;;20.30;9.40;;;;;;;11.43;64.47;99196.20;104725;1290;112777;-70
2022/06/14 02:51:24;;;;;;;26.50;12.40;;;;;;;11.45;64.56;99199.23;104945;1287;99241;-70
2022/06/14 02:54:07;;;;;;;21.30;11.70;;;;;;;11.49;64.49;99200.20;104801;1290;108352;-70
2022/06/14 02:57:20;;;;;;;21.80;11.50;;;;;;;11.53;64.46;99199.91;104745;1290;99132;-68
2022/06/14 03:00:14;;;;;;;22.30;12.00;;;;;;;11.57;64.63;99203.15;104760;1290;99240;-70
2022/06/14 03:03:24;;;;;;;22.50;11.20;;;;;;;11.60;64.70;99202.22;104912;1287;111573;-69
2022/06/14 03:06:25;;;;;;;22.10;11.40;;;;;;;11.64;64.77;99206.88;104722;1287;99581;-69
2022/06/14 03:09:23;;;;;;;22.80;11.60;;;;;;;11.68;64.86;99208.77;104976;1287;106485;-69
2022/06/14 03:12:34;;;;;;;20.90;11.40;;;;;;;11.70;64.85;99207.84;104799;1287;100067;-69
2022/06/14 03:15:37;;;;;;;22.40;12.40;;;;;;;11.72;65.00;99211.62;104987;1287;99261;-68
2022/06/14 03:18:54;;;;;;;30.80;12.50;;;;;;;11.76;65.22;99209.36;104729;1290;111472;-67
2022/06/14 03:21:35;;;;;;;21.00;10.90;;;;;;;11.81;65.16;99211.49;104827;1290;96656;-70
2022/06/14 03:24:17;;;;;;;21.60;12.20;;;;;;;11.87;65.18;99213.67;104488;1289;107820;-69
2022/06/14 03:27:16;;;;;;;22.00;11.10;;;;;;;11.92;65.05;99213.88;104853;1290;99915;-73
2022/06/14 03:29:49;;;;;;;25.00;11.20;;;;;;;11.94;65.18;99214.05;104807;1290;99801;-70
2022/06/14 03:32:38;;;;;;;22.00;10.70;;;;;;;11.98;65.18;99215.23;104751;1288;111699;-70
2022/06/14 03:35:13;;;;;;;22.90;11.60;;;;;;;11.99;65.14;99217.81;104866;1287;99365;-70
2022/06/14 03:37:41;;;;;;;22.40;10.50;;;;;;;12.01;65.27;99214.78;104807;1287;107705;-69
2022/06/14 03:40:13;;;;;;;22.30;11.70;;;;;;;12.04;65.24;99214.54;104888;1287;98317;-69
2022/06/14 03:42:46;;;;;;;24.00;10.70;;;;;;;12.07;65.32;99219.33;104835;1287;99245;-70
2022/06/14 03:45:21;;;;;;;22.90;11.50;;;;;;;12.10;65.40;99219.83;104756;1287;112773;-68
2022/06/14 03:47:55;;;;;;;23.60;11.20;;;;;;;12.10;65.41;99217.35;104852;1287;99335;-69
2022/06/14 03:50:47;;;;;;;21.10;10.30;;;;;;;12.12;65.37;99214.52;104623;1287;108547;-69
2022/06/14 03:53:54;;;;;;;22.60;10.40;;;;;;;12.14;65.48;99215.41;104705;1287;98398;-69
2022/06/14 03:56:30;;;;;;;18.90;9.60;;;;;;;12.16;65.48;99214.77;104535;1288;99243;-69
2022/06/14 03:59:20;;;;;;;24.30;10.60;;;;;;;12.18;65.43;99216.70;102623;1288;2991814;-70
2022/06/14 04:02:02;;;;;;;20.10;9.00;;;;;;;12.19;65.38;99218.92;104865;1287;99247;-70
2022/06/14 04:05:16;;;;;;;19.30;9.50;;;;;;;12.21;65.38;99221.27;104894;1287;107801;-69
2022/06/14 04:08:07;;;;;;;18.50;8.70;;;;;;;12.25;65.51;99221.53;104724;1288;99224;-67
2022/06/14 04:11:03;;;;;;;20.70;8.80;;;;;;;12.28;65.55;99222.71;104687;1288;99261;-68
2022/06/14 04:13:57;;;;;;;22.20;9.40;;;;;;;12.33;65.66;99219.10;104899;1287;114365;-70
2022/06/14 04:16:45;;;;;;;19.10;8.70;;;;;;;12.38;65.76;99217.13;104897;1287;99251;-69
2022/06/14 04:19:32;;;;;;;18.80;8.90;;;;;;;12.42;65.79;99214.17;104900;1287;108828;-68
2022/06/14 04:22:42;;;;;;;21.40;9.10;;;;;;;12.49;65.74;99209.70;104956;1287;99353;-66
2022/06/14 04:25:36;;;;;;;22.30;9.00;;;;;;;12.54;65.72;99210.92;104725;1288;99329;-69
2022/06/14 04:28:20;;;;;;;21.60;9.50;;;;;;;12.58;65.87;99212.41;104760;1288;113349;-67
2022/06/14 04:30:57;;;;;;;19.80;9.50;;;;;;;12.62;65.74;99210.70;104840;1288;98173;-70
2022/06/14 04:33:33;;;;;;;21.80;9.80;;;;;;;12.63;65.75;99205.89;104777;1288;108372;-69
2022/06/14 04:36:01;;;;;;;23.10;9.60;;;;;;;12.65;65.93;99205.11;104760;1288;99257;-68
2022/06/14 04:39:08;;;;;;;20.60;9.70;;;;;;;12.64;65.79;99202.09;104668;1288;98370;-70
2022/06/14 04:42:04;;;;;;;20.20;8.90;;;;;;;12.66;65.93;99203.01;103921;1296;113431;-70
2022/06/14 04:44:54;;;;;;;;;;;;;;;12.70;65.95;99205.20;103983;1297;99281;-69
2022/06/14 04:47:40;;;;;;;22.30;8.80;;;;;;;12.71;66.20;99198.77;104544;1288;108420;-69
2022/06/14 04:50:17;;;;;;;18.80;9.50;;;;;;;12.72;65.96;99196.88;104772;1288;99286;-67
2022/06/14 04:53:19;;;;;;;22.90;9.10;;;;;;;12.73;66.03;99194.33;104734;1288;99229;-73
2022/06/14 04:55:49;;;;;;;22.30;10.50;;;;;;;12.74;65.91;99199.77;104825;1288;112777;-72
2022/06/14 04:58:40;;;;;;;23.60;10.20;;;;;;;12.76;65.93;99203.34;104774;1288;99283;-70
2022/06/14 05:01:15;;;;;;;21.40;10.40;;;;;;;12.77;66.05;99199.70;104728;1287;107589;-71
2022/06/14 05:03:54;;;;;;;23.80;9.60;;;;;;;12.80;66.16;99203.38;104854;1288;99352;-71
2022/06/14 05:06:39;;;;;;;20.40;9.50;;;;;;;12.80;66.06;99198.23;105000;1287;97822;-69
2022/06/14 05:09:23;;;;;;;25.40;11.20;;;;;;;12.82;66.32;99200.92;104978;1287;112891;-70
2022/06/14 05:12:19;;;;;;;22.60;9.80;;;;;;;12.83;65.98;99204.42;104954;1286;99271;-68
2022/06/14 05:14:55;;;;;;;21.80;10.30;;;;;;;12.86;66.08;99211.64;104946;1287;108329;-68
2022/06/14 05:17:35;;;;;;;22.40;10.70;;;;;;;12.90;66.43;99215.96;104699;1291;99309;-69
2022/06/14 05:20:27;;;;;;;21.40;10.40;;;;;;;12.93;66.53;99217.99;104766;1290;99284;-70
2022/06/14 05:23:03;;;;;;;19.90;9.20;;;;;;;12.97;66.23;99219.13;104988;1287;112762;-70
2022/06/14 05:26:08;;;;;;;21.80;9.10;;;;;;;13.01;66.35;99218.09;104880;1288;99108;-69
2022/06/14 05:29:04;;;;;;;20.80;10.20;;;;;;;13.06;66.94;99216.95;104684;1287;108428;-69
2022/06/14 05:31:47;;;;;;;22.40;9.50;;;;;;;13.09;66.39;99211.05;104846;1287;99257;-70
2022/06/14 05:34:37;;;;;;;26.10;9.80;;;;;;;13.15;66.38;99209.84;104636;1288;99339;-67
2022/06/14 05:37:44;;;;;;;20.30;9.10;;;;;;;13.23;66.46;99208.66;104936;1287;113387;-67
2022/06/14 05:40:28;;;;;;;21.20;8.50;;;;;;;13.36;66.46;99208.34;104937;1287;99410;-68
2022/06/14 05:43:27;;;;;;;20.10;8.70;;;;;;;13.50;66.43;99208.30;104520;1287;108396;-69
2022/06/14 05:46:22;;;;;;;22.00;9.20;;;;;;;13.64;66.33;99208.34;104815;1287;99937;-71
2022/06/14 05:49:05;;;;;;;21.20;8.00;;;;;;;13.80;66.35;99208.45;104858;1288;99340;-68
2022/06/14 05:51:48;;;;;;;19.10;8.00;;;;;;;13.94;66.39;99209.98;104454;1290;113394;-70
2022/06/14 05:54:25;;;;;;;19.50;8.30;;;;;;;14.05;66.22;99213.17;104711;1290;96666;-69
2022/06/14 05:57:14;;;;;;;20.80;7.40;;;;;;;14.12;66.56;99210.63;104681;1290;107826;-69
2022/06/14 06:00:12;;;;;;;17.30;7.90;;;;;;;14.16;66.36;99210.05;104984;1287;99243;-67
2022/06/14 06:03:02;;;;;;;24.30;8.40;;;;;;;14.20;66.42;99209.98;105045;1287;99330;-67
2022/06/14 06:05:40;;;;;;;17.50;7.00;;;;;;;14.26;66.61;99215.50;104766;1289;112821;-67
2022/06/14 06:08:35;;;;;;;20.50;6.90;;;;;;;14.35;66.39;99216.33;104778;1288;97883;-69
2022/06/14 06:11:10;;;;;;;21.90;7.20;;;;;;;14.49;66.44;99222.04;104707;1290;108346;-69
2022/06/14 06:13:56;;;;;;;18.30;6.40;;;;;;;14.64;66.37;99230.07;104669;1290;99470;-68
2022/06/14 06:16:40;;;;;;;15.40;5.60;;;;;;;14.75;66.12;99231.61;104728;1290;99396;-69
2022/06/14 06:19:31;;;;;;;15.80;4.90;;;;;;;14.83;65.99;99226.66;104780;1290;113426;-67
2022/06/14 06:22:09;;;;;;;17.90;5.60;;;;;;;14.93;66.00;99226.86;104776;1290;99385;-69
2022/06/14 06:24:45;;;;;;;16.10;5.30;;;;;;;15.02;65.84;99230.02;104725;1289;106983;-69
2022/06/14 06:27:36;;;;;;;14.10;5.10;;;;;;;15.13;65.96;99231.52;104848;1290;99571;-68
2022/06/14 06:30:13;;;;;;;15.10;5.30;;;;;;;15.26;65.99;99231.83;104762;1290;99299;-69
2022/06/14 06:32:46;;;;;;;13.00;4.50;;;;;;;15.38;65.98;99235.56;104814;1288;112783;-68
2022/06/14 06:35:20;;;;;;;11.40;4.70;;;;;;;15.55;65.95;99235.34;104902;1287;96672;-71
2022/06/14 06:38:08;;;;;;;11.10;4.30;;;;;;;15.73;65.87;99235.66;104904;1288;107779;-68
2022/06/14 06:43:46;;;;;;;14.10;3.80;;;;;;;16.07;65.48;99233.88;104824;1288;99303;-68
2022/06/14 06:46:17;;;;;;;9.60;3.50;;;;;;;16.25;65.48;99234.30;104769;1287;112472;-70
2022/06/14 06:48:57;;;;;;;9.30;4.00;;;;;;;16.47;65.28;99239.07;104698;1290;100843;-68
2022/06/14 06:51:44;;;;;;;14.90;4.30;;;;;;;16.71;65.34;99232.68;104642;1290;107794;-68
2022/06/14 06:54:22;;;;;;;10.60;3.90;;;;;;;17.05;65.36;99233.95;104755;1289;99160;-68
2022/06/14 06:56:58;;;;;;;11.40;4.40;;;;;;;17.54;65.28;99234.21;104846;1289;99246;-70
2022/06/14 06:59:42;;;;;;;13.30;3.60;;;;;;;18.61;64.85;99233.48;104827;1290;112995;-69
2022/06/14 07:02:23;;;;;;;8.90;3.10;;;;;;;20.50;62.50;99233.13;104795;1290;99226;-69
2022/06/14 07:05:05;;;;;;;9.40;3.30;;;;;;;22.44;61.29;99231.45;104770;1290;107864;-71
2022/06/14 07:07:46;;;;;;;10.60;2.90;;;;;;;24.27;61.55;99232.33;104867;1290;99232;-71
2022/06/14 07:10:20;;;;;;;7.30;3.10;;;;;;;25.51;61.45;99231.39;104842;1290;99365;-69
2022/06/14 07:13:03;;;;;;;10.30;3.20;;;;;;;25.19;61.91;99233.27;104826;1290;113571;-69
2022/06/14 07:15:43;;;;;;;11.10;3.30;;;;;;;24.48;62.39;99235.91;104780;1290;98038;-70
2022/06/14 07:18:30;;;;;;;9.30;3.20;;;;;;;23.88;61.35;99237.11;104816;1289;107822;-71
2022/06/14 07:21:14;;;;;;;11.00;3.20;;;;;;;23.74;60.22;99239.38;104831;1290;100380;-67
2022/06/14 07:23:57;;;;;;;11.80;3.10;;;;;;;25.26;58.84;99232.84;104832;1287;97968;-69
2022/06/14 07:26:44;;;;;;;11.30;2.90;;;;;;;26.53;57.58;99229.45;104907;1288;112800;-69
2022/06/14 07:29:16;;;;;;;8.70;2.70;;;;;;;27.25;56.88;99226.29;104900;1288;99534;-69
2022/06/14 07:31:57;;;;;;;7.30;2.30;;;;;;;26.95;58.49;99231.88;104987;1288;107772;-70
2022/06/14 07:34:31;;;;;;;10.10;2.40;;;;;;;27.28;57.34;99233.05;104878;1288;99306;-70
2022/06/14 07:37:42;;;;;;;5.50;2.20;;;;;;;28.04;56.74;99234.14;104833;1288;99258;-70
2022/06/14 07:41:12;;;;;;;6.30;2.40;;;;;;;28.72;56.52;99245.04;104860;1288;112829;-69
2022/06/14 07:44:06;;;;;;;7.90;2.80;;;;;;;27.54;55.41;99243.90;104875;1288;99648;-69
2022/06/14 07:47:01;;;;;;;8.20;2.50;;;;;;;27.12;56.18;99246.72;104889;1287;107673;-69
2022/06/14 07:49:43;;;;;;;6.70;2.70;;;;;;;26.87;55.73;99246.78;104860;1288;99360;-70
2022/06/14 07:52:42;;;;;;;11.30;3.00;;;;;;;26.82;55.47;99246.91;104835;1288;99254;-70
2022/06/14 07:55:34;;;;;;;10.80;3.10;;;;;;;26.05;55.94;99253.71;104933;1288;113291;-70
2022/06/14 07:58:12;;;;;;;8.40;2.80;;;;;;;25.45;54.56;99257.80;104963;1288;99277;-68
2022/06/14 08:01:08;;;;;;;8.30;2.70;;;;;;;25.07;54.14;99261.98;104826;1288;107725;-69
2022/06/14 08:03:37;;;;;;;6.90;2.40;;;;;;;25.81;53.28;99254.69;104828;1288;96734;-69
2022/06/14 08:06:17;;;;;;;5.40;1.90;;;;;;;26.55;52.98;99248.92;104898;1287;99999;-69
2022/06/14 08:09:12;;;;;;;10.70;2.60;;;;;;;26.49;52.41;99255.56;105020;1288;112768;-70
2022/06/14 08:12:06;;;;;;;5.90;2.40;;;;;;;26.23;51.97;99257.50;104937;1288;99579;-67
2022/06/14 08:14:54;;;;;;;6.50;2.40;;;;;;;26.48;51.89;99257.63;104760;1288;107442;-69
2022/06/14 08:17:54;;;;;;;7.10;2.20;;;;;;;26.73;50.73;99258.27;104869;1288;99276;-70
2022/06/14 08:20:48;;;;;;;7.80;2.40;;;;;;;26.95;50.52;99260.34;104882;1287;96648;-70
2022/06/14 08:23:50;;;;;;;10.20;2.20;;;;;;;27.00;50.38;99257.35;104940;1288;112781;-69
2022/06/14 08:26:27;;;;;;;5.50;2.30;;;;;;;27.19;49.80;99260.47;104808;1288;99034;-69
2022/06/14 08:29:26;;;;;;;8.60;3.00;;;;;;;26.61;49.91;99254.71;104869;1288;108549;-69
2022/06/14 08:32:09;;;;;;;8.30;2.20;;;;;;;26.30;49.50;99261.38;104818;1288;99368;-69
2022/06/14 08:34:47;;;;;;;10.80;2.90;;;;;;;25.62;49.24;99259.70;105008;1288;99272;-69
2022/06/14 08:37:29;;;;;;;6.10;2.30;;;;;;;25.10;48.92;99266.35;104985;1288;113710;-70
2022/06/14 08:40:09;;;;;;;6.60;2.20;;;;;;;25.41;48.65;99263.02;104821;1287;99690;-68
2022/06/14 08:42:48;;;;;;;12.90;3.20;;;;;;;25.94;48.78;99262.70;104824;1288;107815;-69
2022/06/14 08:45:31;;;;;;;6.60;2.00;;;;;;;26.54;48.24;99258.08;104852;1288;99229;-70
2022/06/14 08:48:24;;;;;;;7.00;1.70;;;;;;;26.39;47.73;99262.80;104943;1288;99263;-70
2022/06/14 08:51:36;;;;;;;4.90;1.90;;;;;;;25.44;46.40;99268.85;104856;1287;112438;-69
2022/06/14 08:54:22;;;;;;;6.90;2.00;;;;;;;25.06;46.53;99270.65;104940;1288;99255;-69
2022/06/14 08:57:10;;;;;;;6.30;2.10;;;;;;;25.30;46.52;99266.11;104930;1288;105936;-69
2022/06/14 09:00:11;;;;;;;4.80;2.00;;;;;;;25.69;46.35;99263.58;104853;1288;99341;-69
2022/06/14 09:02:48;;;;;;;6.60;2.20;;;;;;;25.99;46.21;99260.11;104982;1288;99260;-70
2022/06/14 09:05:29;;;;;;;4.10;2.10;;;;;;;25.38;46.07;99261.73;104845;1288;112770;-69
2022/06/14 09:08:11;;;;;;;5.20;1.80;;;;;;;24.61;46.39;99269.59;104870;1288;96841;-70
2022/06/14 09:11:18;;;;;;;9.90;2.50;;;;;;;24.19;46.31;99272.48;104862;1287;107784;-70
2022/06/14 09:14:14;;;;;;;4.60;1.90;;;;;;;24.56;45.84;99262.53;104863;1288;99346;-70
2022/06/14 09:17:08;;;;;;;2.50;1.60;;;;;;;24.73;45.49;99267.02;104715;1290;96668;-70
2022/06/14 09:20:18;;;;;;;3.20;1.50;;;;;;;24.40;44.98;99270.36;104746;1288;112830;-71
2022/06/14 09:23:02;;;;;;;4.90;1.90;;;;;;;24.42;45.16;99263.30;104828;1288;99372;-70
2022/06/14 09:26:03;;;;;;;8.10;2.10;;;;;;;24.58;44.45;99264.19;104769;1288;107828;-73
2022/06/14 09:28:49;;;;;;;7.70;2.20;;;;;;;24.50;44.07;99268.46;104790;1288;97206;-69
2022/06/14 09:31:43;;;;;;;5.40;2.00;;;;;;;24.57;44.64;99274.55;104891;1288;99237;-72
2022/06/14 09:34:33;;;;;;;5.30;1.60;;;;;;;24.35;43.77;99275.63;104763;1288;111734;-72
2022/06/14 09:37:22;;;;;;;7.20;1.80;;;;;;;24.27;44.09;99275.89;105006;1287;96782;-73
2022/06/14 09:40:33;;;;;;;10.30;2.50;;;;;;;23.79;44.23;99278.17;104763;1288;106448;-69
2022/06/14 09:43:34;;;;;;;8.20;2.70;;;;;;;23.79;43.47;99278.64;104696;1289;96661;-72
2022/06/14 09:46:20;;;;;;;5.90;2.10;;;;;;;23.99;44.07;99273.05;104811;1288;99251;-71
2022/06/14 09:49:33;;;;;;;6.50;1.90;;;;;;;24.29;43.53;99268.27;104825;1290;112813;-73
2022/06/14 09:52:32;;;;;;;8.00;2.20;;;;;;;24.23;43.38;99263.88;104552;1291;97755;-73
2022/06/14 09:55:33;;;;;;;6.90;2.00;;;;;;;24.22;43.76;99262.05;104558;1290;107637;-70
2022/06/14 09:58:21;;;;;;;7.30;2.00;;;;;;;24.28;43.22;99262.81;104834;1288;99363;-70
2022/06/14 10:01:03;;;;;;;3.90;1.80;;;;;;;24.04;43.70;99265.57;104871;1288;97963;-70
2022/06/14 10:04:08;;;;;;;6.70;2.00;;;;;;;23.84;42.53;99261.81;104876;1288;112845;-70
2022/06/14 10:07:29;;;;;;;5.00;2.10;;;;;;;23.63;43.04;99259.75;104912;1287;97110;-69
2022/06/14 10:10:23;;;;;;;5.30;1.90;;;;;;;23.32;42.04;99258.67;104754;1288;107880;-69
2022/06/14 10:13:34;;;;;;;3.70;1.70;;;;;;;22.87;42.61;99256.50;104783;1288;97722;-70
2022/06/14 10:16:02;;;;;;;4.80;2.00;;;;;;;22.72;43.21;99255.20;104917;1288;99353;-70
2022/06/14 10:19:03;;;;;;;4.50;2.30;;;;;;;22.72;42.64;99259.51;104708;1290;112782;-70
2022/06/14 10:21:48;;;;;;;5.80;2.20;;;;;;;22.41;42.13;99256.29;104905;1290;99932;-70
2022/06/14 10:24:32;;;;;;;7.60;2.30;;;;;;;22.10;42.11;99256.82;104885;1288;105658;-70
2022/06/14 10:30:32;;;;;;;5.50;2.20;;;;;;;21.63;42.66;99260.59;105010;1288;99345;-70
2022/06/14 10:33:34;;;;;;;7.60;2.40;;;;;;;21.45;42.01;99264.88;104689;1290;112803;-69
2022/06/14 10:36:11;;;;;;;4.90;2.30;;;;;;;21.27;42.20;99261.70;105023;1288;99320;-69
2022/06/14 10:38:57;;;;;;;3.90;2.30;;;;;;;21.07;42.11;99263.77;104854;1290;107562;-70
2022/06/14 10:41:40;;;;;;;5.70;2.70;;;;;;;20.99;42.05;99270.46;104933;1288;100329;-70
2022/06/14 10:44:18;;;;;;;6.70;2.50;;;;;;;20.96;41.99;99268.58;104803;1288;99252;-70
2022/06/14 10:47:15;;;;;;;3.20;1.60;;;;;;;20.82;41.91;99274.68;104724;1290;112381;-70
2022/06/14 10:50:08;;;;;;;3.60;2.00;;;;;;;20.63;41.80;99273.16;104870;1288;99242;-70
2022/06/14 10:52:45;;;;;;;6.40;1.80;;;;;;;20.49;41.85;99275.83;104874;1288;107858;-71
2022/06/14 10:55:26;;;;;;;5.70;2.30;;;;;;;20.24;42.01;99275.61;104976;1288;99364;-70
2022/06/14 10:58:11;;;;;;;5.40;2.00;;;;;;;20.03;41.89;99276.44;105025;1288;99246;-68
2022/06/14 11:00:56;;;;;;;4.40;1.90;;;;;;;19.95;42.05;99275.77;104873;1288;112789;-70
2022/06/14 11:03:55;;;;;;;6.90;2.20;;;;;;;19.88;41.87;99277.50;104762;1288;97225;-70
2022/06/14 11:06:41;;;;;;;4.70;2.20;;;;;;;19.77;41.90;99272.34;104961;1288;107726;-70
2022/06/14 11:09:57;;;;;;;6.90;2.60;;;;;;;19.74;41.89;99266.23;104894;1288;97097;-70
2022/06/14 11:12:46;;;;;;;5.20;2.20;;;;;;;19.66;41.99;99264.91;104896;1288;96654;-70
2022/06/14 11:15:41;;;;;;;5.80;2.20;;;;;;;19.59;42.14;99262.11;104794;1290;112881;-70
2022/06/14 11:18:32;;;;;;;4.90;2.30;;;;;;;19.57;42.12;99261.74;104843;1288;98493;-69
2022/06/14 11:21:28;;;;;;;5.30;2.50;;;;;;;19.62;42.28;99259.56;104869;1288;108761;-69
2022/06/14 11:24:34;;;;;;;8.20;3.10;;;;;;;19.68;42.19;99262.58;104881;1288;96716;-71
2022/06/14 11:27:08;;;;;;;6.00;2.00;;;;;;;19.69;42.17;99267.75;104848;1290;96985;-71
2022/06/14 11:29:40;;;;;;;5.00;2.40;;;;;;;19.71;41.98;99269.48;104871;1288;112845;-69
2022/06/14 11:32:20;;;;;;;5.20;2.30;;;;;;;19.70;41.89;99271.48;104719;1288;99434;-72
2022/06/14 11:35:16;;;;;;;4.90;2.10;;;;;;;19.58;41.83;99270.09;104705;1288;107691;-69
2022/06/14 11:38:00;;;;;;;5.00;2.40;;;;;;;19.55;42.01;99262.59;104737;1288;99910;-73
2022/06/14 11:40:31;;;;;;;5.10;2.30;;;;;;;19.58;42.12;99267.24;104523;1289;99342;-70
2022/06/14 11:43:08;;;;;;;5.90;2.70;;;;;;;19.61;42.01;99262.09;104822;1288;112796;-70
2022/06/14 11:46:01;;;;;;;3.60;2.50;;;;;;;19.63;42.04;99264.83;104957;1288;96623;-74
2022/06/14 11:48:34;;;;;;;4.40;2.30;;;;;;;19.69;41.90;99264.64;104959;1288;107797;-73
2022/06/14 11:51:37;;;;;;;6.00;2.60;;;;;;;19.69;42.25;99261.73;104980;1288;99329;-70
2022/06/14 11:54:32;;;;;;;7.70;2.30;;;;;;;19.71;42.30;99263.09;104595;1290;99236;-73
2022/06/14 11:57:03;;;;;;;11.60;2.70;;;;;;;19.65;42.36;99262.67;104838;1288;113480;-72
2022/06/14 11:59:47;;;;;;;5.90;2.40;;;;;;;19.55;42.20;99265.71;104615;1288;99240;-71
2022/06/14 12:02:28;;;;;;;8.10;2.70;;;;;;;19.43;42.17;99267.55;104503;1287;108557;-71
2022/06/14 12:05:31;;;;;;;7.90;2.60;;;;;;;19.31;42.15;99271.13;104551;1290;99261;-71
2022/06/14 12:08:29;;;;;;;4.80;2.60;;;;;;;19.20;42.33;99270.37;104752;1288;99251;-72
2022/06/14 12:11:18;;;;;;;5.20;2.40;;;;;;;19.12;42.35;99265.06;104806;1288;111791;-69
2022/06/14 12:13:49;;;;;;;8.00;2.40;;;;;;;19.08;42.21;99265.88;104843;1288;99230;-70
2022/06/14 12:16:38;;;;;;;7.80;2.60;;;;;;;19.06;42.44;99265.86;104833;1288;107755;-68
2022/06/14 12:19:11;;;;;;;7.30;2.60;;;;;;;19.12;42.43;99263.61;104824;1288;96772;-69
2022/06/14 12:22:28;;;;;;;11.60;2.60;;;;;;;19.18;42.63;99264.80;104805;1288;99428;-72
2022/06/14 12:28:26;;;;;;;7.70;2.70;;;;;;;19.38;42.40;99259.47;104832;1288;99281;-69
2022/06/14 12:31:05;;;;;;;7.40;2.70;;;;;;;19.44;42.33;99257.53;104739;1288;108153;-70
2022/06/14 12:34:01;;;;;;;4.50;2.20;;;;;;;19.48;42.48;99257.71;104829;1288;98412;-71
2022/06/14 12:36:56;;;;;;;11.10;2.80;;;;;;;19.57;42.72;99252.38;104922;1288;99335;-68
2022/06/14 12:39:37;;;;;;;8.30;2.00;;;;;;;19.67;42.72;99256.34;104790;1288;111817;-70
2022/06/14 12:42:12;;;;;;;8.30;2.30;;;;;;;19.72;42.35;99261.15;104964;1287;99241;-70
2022/06/14 12:44:51;;;;;;;4.60;1.80;;;;;;;19.66;41.97;99259.40;104957;1288;107792;-69
2022/06/14 12:47:32;;;;;;;3.40;1.70;;;;;;;19.56;42.19;99262.21;104798;1288;99319;-69
2022/06/14 12:50:25;;;;;;;4.80;1.60;;;;;;;19.48;42.38;99267.02;104791;1287;99261;-69
2022/06/14 12:53:01;;;;;;;2.60;1.20;;;;;;;19.43;42.36;99265.92;104777;1287;112839;-70
2022/06/14 12:55:48;;;;;;;6.90;1.70;;;;;;;19.39;42.49;99264.64;104771;1287;99354;-70
2022/06/14 12:58:30;;;;;;;5.20;1.90;;;;;;;19.30;42.06;99265.69;104801;1288;107712;-69
2022/06/14 13:01:15;;;;;;;6.60;1.60;;;;;;;19.20;42.39;99269.45;104845;1288;99955;-68